createdAt,value
2023-02-23T00:01:56.378Z,14.40
2023-02-23T00:04:25.121Z,14.57
2023-02-23T00:06:55.006Z,13.00
2023-02-23T00:09:27.693Z,15.47
2023-02-23T00:11:57.859Z,13.90
2023-02-23T00:14:28.512Z,14.30
2023-02-23T00:16:56.945Z,13.40
2023-02-23T00:19:25.802Z,15.10
2023-02-23T00:21:58.745Z,14.13
2023-02-23T00:24:28.046Z,13.80
2023-02-23T00:26:56.134Z,14.90
2023-02-23T00:29:25.698Z,12.40
2023-02-23T00:31:56.236Z,14.00
2023-02-23T00:34:24.438Z,14.67
2023-02-23T00:36:55.441Z,15.17
2023-02-23T00:39:28.871Z,14.40
2023-02-23T00:42:03.222Z,14.13
2023-02-23T00:44:33.035Z,14.07
2023-02-23T00:47:01.783Z,14.30
2023-02-23T00:49:30.053Z,14.87
2023-02-23T00:51:58.487Z,13.23
2023-02-23T00:54:27.914Z,13.90
2023-02-23T00:56:55.907Z,15.80
2023-02-23T00:59:24.453Z,14.00
2023-02-23T01:01:52.571Z,14.70
2023-02-23T01:04:23.322Z,14.37
2023-02-23T01:06:51.430Z,12.33
2023-02-23T01:09:28.163Z,15.47
2023-02-23T01:12:01.805Z,14.17
2023-02-23T01:14:31.183Z,14.40
2023-02-23T01:16:59.355Z,13.00
2023-02-23T01:19:27.406Z,13.80
2023-02-23T01:21:55.374Z,15.53
2023-02-23T01:24:24.630Z,15.80
2023-02-23T01:26:53.763Z,13.90
2023-02-23T01:29:23.181Z,14.17
2023-02-23T01:31:52.232Z,14.90
2023-02-23T01:34:22.778Z,16.00
2023-02-23T01:36:52.255Z,14.67
2023-02-23T01:39:21.985Z,13.90
2023-02-23T01:41:52.556Z,13.53
2023-02-23T01:45:01.396Z,15.27
2023-02-23T01:47:31.319Z,13.67
2023-02-23T01:50:02.068Z,15.50
2023-02-23T01:52:31.010Z,14.40
2023-02-23T01:54:59.056Z,15.93
2023-02-23T01:57:28.257Z,15.17
2023-02-23T01:59:56.660Z,14.43
2023-02-23T02:02:33.980Z,14.60
2023-02-23T02:05:08.449Z,14.57
2023-02-23T02:07:39.680Z,15.30
2023-02-23T02:10:26.959Z,14.60
2023-02-23T02:12:58.128Z,15.10
2023-02-23T02:15:34.851Z,13.27
2023-02-23T02:18:12.105Z,17.30
2023-02-23T02:21:11.604Z,14.07
2023-02-23T02:24:08.536Z,14.00
2023-02-23T02:26:48.875Z,15.03
2023-02-23T02:29:47.494Z,14.83
2023-02-23T02:32:40.767Z,16.50
2023-02-23T02:35:56.116Z,16.27
2023-02-23T02:38:35.633Z,16.20
2023-02-23T02:41:07.618Z,16.50
2023-02-23T02:43:43.480Z,15.43
2023-02-23T02:46:18.910Z,16.17
2023-02-23T02:48:59.309Z,15.40
2023-02-23T02:51:31.455Z,14.60
2023-02-23T02:54:07.612Z,16.70
2023-02-23T02:56:40.454Z,16.00
2023-02-23T02:59:30.741Z,17.90
2023-02-23T03:02:16.515Z,16.93
2023-02-23T03:05:01.959Z,16.70
2023-02-23T03:07:53.529Z,16.70
2023-02-23T03:10:52.622Z,16.63
2023-02-23T03:13:51.457Z,17.30
2023-02-23T03:19:46.134Z,16.17
2023-02-23T03:22:40.247Z,15.93
2023-02-23T03:25:29.915Z,15.77
2023-02-23T03:28:28.730Z,15.37
2023-02-23T03:31:24.671Z,14.67
2023-02-23T03:34:15.306Z,15.17
2023-02-23T03:37:09.899Z,14.60
2023-02-23T03:40:00.124Z,16.17
2023-02-23T03:42:51.361Z,13.77
2023-02-23T03:45:42.730Z,15.60
2023-02-23T03:48:31.207Z,15.00
2023-02-23T03:51:21.281Z,16.33
2023-02-23T03:54:12.790Z,15.60
2023-02-23T03:57:03.023Z,15.77
2023-02-23T03:59:57.069Z,15.90
2023-02-23T04:02:44.717Z,17.60
2023-02-23T04:05:34.751Z,16.97
2023-02-23T04:08:21.660Z,16.10
2023-02-23T04:11:11.495Z,17.70
2023-02-23T04:13:40.522Z,16.60
2023-02-23T04:16:09.329Z,16.17
2023-02-23T04:18:40.515Z,16.23
2023-02-23T04:21:08.641Z,14.83
2023-02-23T04:23:40.550Z,17.03
2023-02-23T04:26:08.554Z,17.87
2023-02-23T04:28:36.691Z,16.80
2023-02-23T04:31:05.118Z,16.17
2023-02-23T04:33:33.488Z,19.60
2023-02-23T04:36:02.995Z,18.07
2023-02-23T04:38:31.393Z,16.40
2023-02-23T04:40:59.448Z,18.63
2023-02-23T04:43:27.424Z,17.13
2023-02-23T04:45:55.598Z,17.00
2023-02-23T04:48:25.091Z,19.33
2023-02-23T04:50:53.816Z,16.57
2023-02-23T04:53:23.519Z,17.10
2023-02-23T04:55:51.698Z,17.03
2023-02-23T04:58:19.689Z,15.30
2023-02-23T05:00:47.972Z,16.20
2023-02-23T05:03:17.445Z,18.17
2023-02-23T05:05:46.067Z,17.93
2023-02-23T05:08:14.160Z,18.63
2023-02-23T05:10:43.508Z,17.07
2023-02-23T05:13:11.627Z,19.47
2023-02-23T05:15:39.768Z,17.27
2023-02-23T05:18:08.286Z,17.83
2023-02-23T05:20:36.383Z,16.77
2023-02-23T05:23:04.772Z,20.17
2023-02-23T05:25:33.572Z,19.67
2023-02-23T05:28:03.680Z,18.67
2023-02-23T05:30:31.772Z,18.17
2023-02-23T05:32:59.800Z,16.80
2023-02-23T05:35:28.008Z,17.60
2023-02-23T05:37:56.781Z,16.83
2023-02-23T05:40:24.859Z,17.33
2023-02-23T05:42:53.045Z,18.37
2023-02-23T05:45:22.777Z,18.80
2023-02-23T05:47:52.011Z,18.00
2023-02-23T05:50:20.332Z,16.30
2023-02-23T05:52:48.701Z,16.87
2023-02-23T05:55:16.822Z,18.27
2023-02-23T05:57:45.679Z,17.57
2023-02-23T06:00:14.662Z,16.90
2023-02-23T06:02:44.912Z,18.40
2023-02-23T06:05:14.026Z,17.43
2023-02-23T06:07:42.793Z,18.40
2023-02-23T06:10:12.060Z,17.57
2023-02-23T06:12:40.095Z,18.07
2023-02-23T06:15:09.031Z,17.90
2023-02-23T06:17:37.535Z,19.93
2023-02-23T06:20:07.847Z,16.37
2023-02-23T06:22:35.912Z,16.07
2023-02-23T06:25:05.149Z,15.60
2023-02-23T06:27:33.142Z,18.93
2023-02-23T06:30:01.179Z,16.10
2023-02-23T06:32:29.642Z,17.90
2023-02-23T06:34:57.905Z,14.93
2023-02-23T06:37:27.575Z,17.40
2023-02-23T06:39:55.573Z,16.43
2023-02-23T06:42:23.716Z,16.90
2023-02-23T06:44:51.938Z,15.30
2023-02-23T06:47:20.227Z,18.40
2023-02-23T06:49:48.731Z,18.50
2023-02-23T06:52:16.814Z,15.27
2023-02-23T06:54:46.283Z,15.43
2023-02-23T06:57:14.337Z,17.37
2023-02-23T06:59:42.681Z,15.97
2023-02-23T07:02:13.451Z,16.33
2023-02-23T07:04:41.525Z,16.67
2023-02-23T07:07:09.973Z,14.70
2023-02-23T07:09:40.152Z,15.27
2023-02-23T07:20:54.153Z,17.47
2023-02-23T07:23:23.291Z,17.40
2023-02-23T07:25:51.832Z,15.00
2023-02-23T07:28:21.325Z,18.43
2023-02-23T07:30:49.933Z,18.60
2023-02-23T07:33:18.246Z,16.77
2023-02-23T07:35:46.394Z,21.10
2023-02-23T07:38:15.782Z,16.97
2023-02-23T07:40:44.144Z,17.97
2023-02-23T07:43:12.151Z,16.50
2023-02-23T07:45:40.143Z,17.07
2023-02-23T07:48:08.401Z,17.67
2023-02-23T07:50:36.726Z,17.47
2023-02-23T07:53:04.936Z,16.53
2023-02-23T07:55:34.648Z,16.20
2023-02-23T07:58:02.695Z,18.57
2023-02-23T08:00:30.682Z,17.30
2023-02-23T08:02:59.119Z,19.30
2023-02-23T08:05:27.048Z,15.17
2023-02-23T08:07:55.895Z,15.13
2023-02-23T08:10:24.417Z,19.53
2023-02-23T08:12:54.510Z,19.37
2023-02-23T08:15:22.694Z,19.87
2023-02-23T08:17:51.033Z,17.33
2023-02-23T08:20:19.215Z,16.00
2023-02-23T08:22:50.005Z,17.73
2023-02-23T08:25:18.850Z,16.97
2023-02-23T08:27:46.888Z,16.30
2023-02-23T08:30:16.726Z,17.93
2023-02-23T08:32:44.785Z,17.00
2023-02-23T08:35:13.062Z,18.93
2023-02-23T08:37:41.845Z,16.30
2023-02-23T08:40:15.508Z,18.30
2023-02-23T08:42:43.880Z,16.80
2023-02-23T08:45:13.316Z,17.80
2023-02-23T08:47:43.020Z,16.63
2023-02-23T08:50:13.068Z,16.27
2023-02-23T08:52:42.494Z,16.47
2023-02-23T08:55:14.018Z,16.90
2023-02-23T08:57:42.184Z,15.67
2023-02-23T09:00:14.354Z,16.20
2023-02-23T09:02:45.570Z,18.77
2023-02-23T09:05:13.640Z,17.33
2023-02-23T09:07:45.224Z,17.67
2023-02-23T09:10:15.336Z,16.73
2023-02-23T09:12:43.376Z,17.50
2023-02-23T09:15:12.309Z,19.20
2023-02-23T09:17:42.847Z,17.73
2023-02-23T09:20:15.807Z,14.77
2023-02-23T09:22:48.662Z,18.40
2023-02-23T09:25:19.097Z,18.50
2023-02-23T09:27:47.474Z,16.90
2023-02-23T09:30:17.713Z,17.20
2023-02-23T09:32:46.501Z,16.03
2023-02-23T09:35:18.684Z,17.97
2023-02-23T09:37:48.421Z,17.50
2023-02-23T09:40:19.501Z,18.30
2023-02-23T09:43:00.258Z,17.37
2023-02-23T09:45:39.285Z,15.00
2023-02-23T09:48:16.517Z,15.10
2023-02-23T09:50:50.130Z,15.90
2023-02-23T09:53:32.772Z,16.30
2023-02-23T09:56:02.035Z,13.10
2023-02-23T09:58:32.312Z,14.23
2023-02-23T10:01:38.552Z,14.33
2023-02-23T10:04:13.120Z,13.93
2023-02-23T10:06:49.825Z,12.07
2023-02-23T10:09:25.555Z,16.83
2023-02-23T10:11:59.298Z,14.93
2023-02-23T10:14:53.704Z,12.70
2023-02-23T10:17:31.139Z,12.77
2023-02-23T10:20:05.883Z,14.20
2023-02-23T10:22:36.936Z,12.77
2023-02-23T10:25:12.802Z,11.77
2023-02-23T10:27:43.193Z,12.73
2023-02-23T10:30:20.475Z,12.07
2023-02-23T10:32:54.397Z,12.47
2023-02-23T10:35:24.498Z,11.67
2023-02-23T10:37:55.453Z,12.20
2023-02-23T10:40:27.656Z,12.80
2023-02-23T10:42:56.773Z,11.17
2023-02-23T10:45:27.452Z,13.40
2023-02-23T10:47:59.717Z,12.30
2023-02-23T10:50:28.980Z,12.90
2023-02-23T10:53:01.402Z,11.57
2023-02-23T10:55:31.220Z,12.53
2023-02-23T10:58:05.721Z,14.00
2023-02-23T11:00:36.908Z,11.30
2023-02-23T11:03:19.788Z,13.70
2023-02-23T11:05:50.502Z,13.37
2023-02-23T11:08:25.141Z,11.03
2023-02-23T11:11:20.388Z,10.00
2023-02-23T11:13:50.764Z,9.97
2023-02-23T11:16:21.297Z,12.00
2023-02-23T11:18:55.664Z,10.33
2023-02-23T11:21:26.756Z,9.67
2023-02-23T11:23:59.661Z,9.70
2023-02-23T11:26:36.799Z,8.67
2023-02-23T11:29:17.136Z,8.30
2023-02-23T11:31:50.162Z,8.00
2023-02-23T11:34:30.372Z,8.90
2023-02-23T11:37:13.445Z,7.73
2023-02-23T11:39:53.222Z,11.63
2023-02-23T11:42:25.174Z,10.40
2023-02-23T11:45:03.780Z,9.17
2023-02-23T11:47:35.066Z,9.17
2023-02-23T11:50:05.112Z,9.33
2023-02-23T11:52:34.089Z,9.50
2023-02-23T11:55:08.158Z,7.93
2023-02-23T11:57:37.158Z,6.97
2023-02-23T12:00:13.665Z,6.83
2023-02-23T12:02:50.926Z,7.27
2023-02-23T12:05:23.265Z,6.40
2023-02-23T12:07:58.379Z,7.53
2023-02-23T12:10:31.582Z,9.43
2023-02-23T12:13:13.266Z,8.27
2023-02-23T12:15:48.774Z,8.43
2023-02-23T12:18:34.843Z,9.23
2023-02-23T12:21:11.953Z,9.43
2023-02-23T12:23:46.023Z,8.53
2023-02-23T12:26:21.503Z,9.43
2023-02-23T12:28:58.855Z,8.67
2023-02-23T12:31:35.256Z,8.33
2023-02-23T12:34:14.547Z,8.90
2023-02-23T12:36:46.543Z,7.17
2023-02-23T12:39:24.558Z,11.13
2023-02-23T12:42:02.659Z,8.90
2023-02-23T12:44:38.340Z,8.10
2023-02-23T12:47:15.039Z,7.90
2023-02-23T12:49:47.976Z,9.70
2023-02-23T12:52:20.943Z,9.03
2023-02-23T12:54:49.875Z,8.50
2023-02-23T12:57:29.453Z,7.03
2023-02-23T13:00:30.656Z,7.83
2023-02-23T13:03:29.225Z,7.97
2023-02-23T13:06:05.141Z,8.23
2023-02-23T13:08:50.540Z,8.03
2023-02-23T13:11:29.005Z,6.83
2023-02-23T13:14:05.293Z,8.00
2023-02-23T13:16:36.888Z,7.60
2023-02-23T13:19:11.897Z,8.37
2023-02-23T13:21:46.798Z,8.47
2023-02-23T13:24:20.669Z,10.00
2023-02-23T13:26:55.410Z,7.80
2023-02-23T13:29:35.294Z,7.53
2023-02-23T13:32:06.332Z,10.17
2023-02-23T13:34:36.301Z,9.07
2023-02-23T13:37:08.148Z,9.90
2023-02-23T13:40:00.573Z,9.10
2023-02-23T13:42:43.591Z,8.43
2023-02-23T13:45:28.615Z,10.13
2023-02-23T13:48:02.553Z,8.80
2023-02-23T13:50:38.839Z,9.60
2023-02-23T13:53:09.199Z,8.90
2023-02-23T13:55:50.356Z,9.40
2023-02-23T13:58:26.930Z,7.43
2023-02-23T14:01:11.131Z,8.60
2023-02-23T14:03:47.390Z,9.23
2023-02-23T14:06:18.717Z,8.97
2023-02-23T14:08:53.142Z,7.70
2023-02-23T14:11:53.751Z,7.97
2023-02-23T14:14:44.306Z,9.20
2023-02-23T14:17:42.664Z,8.20
2023-02-23T14:20:29.499Z,7.90
2023-02-23T14:23:30.123Z,7.03
2023-02-23T14:26:18.308Z,8.63
2023-02-23T14:28:50.301Z,8.10
2023-02-23T14:31:23.764Z,9.40
2023-02-23T14:33:59.956Z,6.93
2023-02-23T14:36:46.788Z,7.93
2023-02-23T14:39:23.595Z,8.90
2023-02-23T14:41:55.247Z,9.63
2023-02-23T14:44:30.797Z,8.63
2023-02-23T14:47:04.206Z,8.13
2023-02-23T14:49:40.376Z,8.40
2023-02-23T14:52:11.116Z,7.50
2023-02-23T14:54:41.042Z,9.00
2023-02-23T14:57:18.724Z,9.10
2023-02-23T14:59:52.941Z,7.50
2023-02-23T15:02:24.320Z,8.63
2023-02-23T15:04:54.302Z,9.53
2023-02-23T15:07:31.290Z,7.00
2023-02-23T15:10:01.354Z,9.47
2023-02-23T15:12:35.628Z,7.90
2023-02-23T15:15:08.497Z,8.53
2023-02-23T15:17:39.403Z,9.83
2023-02-23T15:20:16.988Z,7.37
2023-02-23T15:22:48.640Z,8.43
2023-02-23T15:25:18.491Z,6.80
2023-02-23T15:27:48.208Z,8.87
2023-02-23T15:30:22.832Z,7.97
2023-02-23T15:33:00.878Z,6.93
2023-02-23T15:35:32.239Z,7.23
2023-02-23T15:38:14.001Z,7.83
2023-02-23T15:40:55.411Z,8.40
2023-02-23T15:43:23.899Z,8.50
2023-02-23T15:45:54.018Z,8.00
2023-02-23T15:48:25.075Z,7.10
2023-02-23T15:50:57.876Z,7.90
2023-02-23T15:53:30.985Z,7.87
2023-02-23T15:56:04.590Z,8.30
2023-02-23T15:58:44.448Z,7.83
2023-02-23T16:01:24.867Z,8.10
2023-02-23T16:04:03.814Z,8.47
2023-02-23T16:06:39.661Z,8.13
2023-02-23T16:09:21.116Z,9.43
2023-02-23T16:11:52.458Z,9.10
2023-02-23T16:14:22.611Z,8.10
2023-02-23T16:17:10.418Z,8.33
2023-02-23T16:19:41.222Z,6.63
2023-02-23T16:22:29.008Z,8.03
2023-02-23T16:25:03.641Z,7.37
2023-02-23T16:27:32.761Z,7.23
2023-02-23T16:30:07.455Z,6.43
2023-02-23T16:32:38.551Z,7.57
2023-02-23T16:35:15.906Z,5.80
2023-02-23T16:38:02.253Z,5.07
2023-02-23T16:40:30.416Z,7.03
2023-02-23T16:42:59.565Z,6.27
2023-02-23T16:45:29.676Z,5.40
2023-02-23T16:48:02.338Z,6.13
2023-02-23T16:50:30.850Z,5.83
2023-02-23T16:53:02.153Z,6.50
2023-02-23T16:55:31.038Z,6.70
2023-02-23T16:58:01.569Z,6.57
2023-02-23T17:00:32.009Z,6.47
2023-02-23T17:03:01.399Z,5.00
2023-02-23T17:05:30.890Z,6.40
2023-02-23T17:08:00.618Z,5.47
2023-02-23T17:10:31.436Z,7.17
2023-02-23T17:13:02.523Z,7.17
2023-02-23T17:15:32.802Z,7.07
2023-02-23T17:18:00.974Z,8.00
2023-02-23T17:20:30.095Z,6.23
2023-02-23T17:23:01.955Z,6.80
2023-02-23T17:25:30.679Z,6.57
2023-02-23T17:27:59.849Z,6.60
2023-02-23T17:30:29.266Z,8.27
2023-02-23T17:33:00.139Z,6.93
2023-02-23T17:35:33.637Z,5.07
2023-02-23T17:38:03.137Z,5.40
2023-02-23T17:40:36.367Z,6.80
2023-02-23T17:43:08.763Z,6.53
2023-02-23T17:45:36.807Z,6.13
2023-02-23T17:48:05.028Z,5.30
2023-02-23T17:50:33.047Z,7.10
2023-02-23T17:53:03.290Z,8.07
2023-02-23T17:55:31.646Z,7.77
2023-02-23T17:57:59.870Z,5.70
2023-02-23T18:00:28.640Z,6.50
2023-02-23T18:02:57.068Z,6.00
2023-02-23T18:05:25.449Z,5.30
2023-02-23T18:07:53.703Z,4.43
2023-02-23T18:10:37.069Z,4.67
2023-02-23T18:13:06.350Z,4.43
2023-02-23T18:15:34.367Z,3.60
2023-02-23T18:18:02.402Z,4.80
2023-02-23T18:20:30.721Z,5.07
2023-02-23T18:22:58.772Z,4.70
2023-02-23T18:25:30.697Z,4.40
2023-02-23T18:27:59.609Z,4.03
2023-02-23T18:30:28.579Z,3.67
2023-02-23T18:33:00.555Z,4.80
2023-02-23T18:35:28.735Z,4.40
2023-02-23T18:37:57.128Z,3.53
2023-02-23T18:40:26.026Z,3.00
2023-02-23T18:42:58.294Z,3.90
2023-02-23T18:45:26.696Z,4.17
2023-02-23T18:47:54.744Z,4.07
2023-02-23T18:50:22.816Z,3.40
2023-02-23T18:52:51.739Z,4.63
2023-02-23T18:55:24.280Z,4.30
2023-02-23T18:57:53.845Z,4.60
2023-02-23T19:00:24.929Z,3.70
2023-02-23T19:02:53.730Z,4.63
2023-02-23T19:05:22.446Z,4.53
2023-02-23T19:07:50.858Z,3.40
2023-02-23T19:10:19.476Z,3.30
2023-02-23T19:12:47.688Z,4.70
2023-02-23T19:15:15.970Z,4.23
2023-02-23T19:17:47.366Z,3.03
2023-02-23T19:20:15.869Z,4.13
2023-02-23T19:22:44.099Z,3.43
2023-02-23T19:25:14.449Z,5.20
2023-02-23T19:27:43.346Z,3.77
2023-02-23T19:30:14.239Z,4.47
2023-02-23T19:32:44.009Z,5.60
2023-02-23T19:35:17.614Z,4.33
2023-02-23T19:37:48.669Z,3.50
2023-02-23T19:40:19.893Z,3.63
2023-02-23T19:42:49.394Z,3.83
2023-02-23T19:45:18.558Z,4.73
2023-02-23T19:47:46.896Z,3.80
2023-02-23T19:50:18.924Z,4.37
2023-02-23T19:52:47.758Z,3.57
2023-02-23T19:55:16.830Z,3.60
2023-02-23T19:57:46.756Z,4.67
2023-02-23T20:00:17.130Z,3.80
2023-02-23T20:02:50.302Z,4.60
2023-02-23T20:05:24.631Z,3.80
2023-02-23T20:07:54.796Z,4.63
2023-02-23T20:10:26.463Z,4.27
2023-02-23T20:12:55.353Z,4.10
2023-02-23T20:15:23.734Z,4.67
2023-02-23T20:17:52.273Z,4.73
2023-02-23T20:20:25.542Z,5.50
2023-02-23T20:22:54.287Z,4.40
2023-02-23T20:25:23.138Z,3.77
2023-02-23T20:27:52.056Z,4.90
2023-02-23T20:30:21.064Z,4.00
2023-02-23T20:32:49.763Z,4.03
2023-02-23T20:35:19.176Z,5.50
2023-02-23T20:37:48.661Z,5.10
2023-02-23T20:40:18.490Z,4.00
2023-02-23T20:42:48.792Z,5.30
2023-02-23T20:45:19.036Z,5.00
2023-02-23T20:47:47.529Z,4.93
2023-02-23T20:50:16.362Z,4.17
2023-02-23T20:52:45.876Z,3.83
2023-02-23T20:55:18.917Z,4.17
2023-02-23T20:57:47.603Z,4.00
2023-02-23T21:00:22.408Z,4.63
2023-02-23T21:02:55.773Z,3.03
2023-02-23T21:05:25.307Z,2.80
2023-02-23T21:07:56.803Z,2.30
2023-02-23T21:10:26.593Z,2.00
2023-02-23T21:12:55.894Z,2.03
2023-02-23T21:15:25.664Z,2.23
2023-02-23T21:17:54.361Z,2.40
2023-02-23T21:20:23.140Z,2.27
2023-02-23T21:22:51.982Z,3.33
2023-02-23T21:25:22.762Z,2.17
2023-02-23T21:27:54.146Z,2.30
2023-02-23T21:30:28.635Z,2.43
2023-02-23T21:33:00.347Z,2.17
2023-02-23T21:35:28.646Z,2.70
2023-02-23T21:37:57.364Z,3.10
2023-02-23T21:40:25.430Z,2.33
2023-02-23T21:42:54.786Z,2.23
2023-02-23T21:45:22.964Z,3.20
2023-02-23T21:47:50.967Z,2.67
2023-02-23T21:50:20.384Z,2.50
2023-02-23T21:52:54.025Z,3.03
2023-02-23T21:55:22.747Z,2.90
2023-02-23T21:57:51.944Z,2.57
2023-02-23T22:00:22.764Z,2.40
2023-02-23T22:02:51.963Z,2.30
2023-02-23T22:05:20.685Z,2.23
2023-02-23T22:07:52.559Z,2.40
2023-02-23T22:10:22.649Z,2.87
2023-02-23T22:12:55.777Z,1.97
2023-02-23T22:15:28.137Z,2.60
2023-02-23T22:17:57.157Z,2.30
2023-02-23T22:20:26.369Z,2.10
2023-02-23T22:22:54.398Z,2.50
2023-02-23T22:25:22.401Z,2.20
2023-02-23T22:27:50.437Z,1.47
2023-02-23T22:30:20.499Z,2.70
2023-02-23T22:32:49.961Z,2.10
2023-02-23T22:35:18.195Z,3.50
2023-02-23T22:37:47.553Z,2.70
2023-02-23T22:40:16.678Z,2.30
2023-02-23T22:42:48.181Z,3.20
2023-02-23T22:45:17.448Z,2.17
2023-02-23T22:47:45.742Z,1.90
2023-02-23T22:50:17.822Z,2.50
2023-02-23T22:52:47.237Z,1.73
2023-02-23T22:55:15.338Z,2.60
2023-02-23T22:57:43.872Z,3.10
2023-02-23T23:00:15.505Z,1.90
2023-02-23T23:02:43.633Z,1.90
2023-02-23T23:05:13.588Z,1.70
2023-02-23T23:07:46.738Z,2.93
2023-02-23T23:10:15.603Z,2.40
2023-02-23T23:12:43.858Z,2.77
2023-02-23T23:15:17.396Z,1.70
2023-02-23T23:17:48.140Z,1.70
2023-02-23T23:20:23.144Z,1.63
2023-02-23T23:22:52.622Z,2.03
2023-02-23T23:25:22.904Z,1.70
2023-02-23T23:27:52.985Z,1.57
2023-02-23T23:30:25.809Z,1.47
2023-02-23T23:32:54.135Z,2.00
2023-02-23T23:35:22.814Z,2.27
2023-02-23T23:37:52.432Z,1.83
2023-02-23T23:40:24.206Z,2.83
2023-02-23T23:42:52.934Z,1.70
2023-02-23T23:45:24.071Z,1.00
2023-02-23T23:47:52.383Z,2.90
2023-02-23T23:50:26.468Z,1.63
2023-02-23T23:52:57.147Z,2.27
2023-02-23T23:55:31.091Z,1.70
2023-02-23T23:58:00.165Z,1.50
